الصفحة الرئيسية
METAR-TAF:

METAR-TAF

مطار :

مطار البحرين الدولي

البحرين, البحرين

دائرة عرض: 26-16N, خط طول: 050-39E, ارتفاع: 2 متر

مراقبة الطقس الحالي

تاريخ ووقت الإصدار 29 دقيقة قبل الساعة 04:00UTC
ريح 7 عقدة من الغرب
درجة الحرارة 36°درجة مئوية
الرطوبة 31%
ضغط 997 hPa
الرؤية: 8000 متر
سماء صافية

METAR: OBBI 180400Z 26007KT 8000 SKC 36/16 Q0997 NOSIG

زمن: 07:29 (04:29 UTC)

توقعات

تاريخ ووقت الإصدار 5ساعات و 29 دقيقة قبل الساعة 23:00UTC
التوقعات صالحة من18 الساعة 00 UTC إلى 19 الساعة 06 UTC
ريح 10 عقدة من الشمال الغربي
الرؤية 10 كم أو أكثر
الغيوم لا تقل 1500 م ولا وجود لمزنة ركامية السحاب الأسود
نظرية الاحتمالات 30% :
مؤقت
من 18 الساعة 00 UTC إلى 18 الساعة 04 UTC
الرؤية: 4000 متر
غبار
أصبح
من 18 الساعة 04 UTC إلى 18 الساعة 06 UTC
ريح 13 عقدة من الشمال/الشمال الغربي تتزايد حتى 23 عقدة
أصبح
من 18 الساعة 16 UTC إلى 18 الساعة 18 UTC
ريح 5 عقدةمن اتجاهات متغيرة

TAF: OBBI 172300Z 1800/1906 31010KT CAVOK PROB30 TEMPO 1800/1804 4000 DU NSC BECMG 1804/1806 34013G23KT BECMG 1816/1818 VRB05KT

أرصاد الطقس والتوقعات من أكثر من 4000 مطار (تقارير الطقس للمطار METAR والتنبؤ بالطقس بالمطارTAF).

المحطات المتاحة هي النقط الصفراء والحمراء على الخريطة.

حرك المؤشر فوق النقطة لمعرفة اسم المحطة.

ثم انقر لمعرفة أرصاد وتوقعات الطقس.

لتغيير الخارطة: اضغط على الأزرار الخضراء مع رمز الصليب الأسود للتكبير. على الزر الأخضر مع شرطة للتصغير، أو على الأسهم الخضراء للخرائط المجاورة.


METAR-TAF: